sensor_id;sensor_type;location;lat;lon;timestamp;P1;durP1;ratioP1;P2;durP2;ratioP2
10281;SDS011;5186;59.472;18.048;2023-04-09T00:01:07;6.23;;;1.97;;
10281;SDS011;5186;59.472;18.048;2023-04-09T00:03:33;7.43;;;2.50;;
10281;SDS011;5186;59.472;18.048;2023-04-09T00:06:00;6.07;;;2.23;;
10281;SDS011;5186;59.472;18.048;2023-04-09T00:08:25;2.70;;;1.93;;
10281;SDS011;5186;59.472;18.048;2023-04-09T00:10:54;4.33;;;2.47;;
10281;SDS011;5186;59.472;18.048;2023-04-09T00:13:21;9.20;;;2.43;;
10281;SDS011;5186;59.472;18.048;2023-04-09T00:15:47;3.30;;;2.20;;
10281;SDS011;5186;59.472;18.048;2023-04-09T00:18:13;4.70;;;2.23;;
10281;SDS011;5186;59.472;18.048;2023-04-09T00:20:38;6.27;;;2.57;;
10281;SDS011;5186;59.472;18.048;2023-04-09T00:23:04;3.67;;;2.10;;
10281;SDS011;5186;59.472;18.048;2023-04-09T00:25:30;4.80;;;2.13;;
10281;SDS011;5186;59.472;18.048;2023-04-09T00:27:56;4.13;;;2.00;;
10281;SDS011;5186;59.472;18.048;2023-04-09T00:30:22;4.43;;;2.60;;
10281;SDS011;5186;59.472;18.048;2023-04-09T00:32:47;3.53;;;2.20;;
10281;SDS011;5186;59.472;18.048;2023-04-09T00:35:13;3.87;;;2.00;;
10281;SDS011;5186;59.472;18.048;2023-04-09T00:37:38;4.57;;;2.40;;
10281;SDS011;5186;59.472;18.048;2023-04-09T00:40:04;3.67;;;1.93;;
10281;SDS011;5186;59.472;18.048;2023-04-09T00:42:31;4.57;;;2.00;;
10281;SDS011;5186;59.472;18.048;2023-04-09T00:44:57;9.63;;;3.07;;
10281;SDS011;5186;59.472;18.048;2023-04-09T00:47:23;5.17;;;3.00;;
10281;SDS011;5186;59.472;18.048;2023-04-09T00:49:49;4.73;;;2.23;;
10281;SDS011;5186;59.472;18.048;2023-04-09T00:52:15;4.43;;;2.30;;
10281;SDS011;5186;59.472;18.048;2023-04-09T00:54:41;2.50;;;2.07;;
10281;SDS011;5186;59.472;18.048;2023-04-09T00:57:06;7.23;;;2.50;;
10281;SDS011;5186;59.472;18.048;2023-04-09T00:59:32;4.97;;;2.20;;
10281;SDS011;5186;59.472;18.048;2023-04-09T01:01:58;4.13;;;2.23;;
10281;SDS011;5186;59.472;18.048;2023-04-09T01:04:23;4.07;;;2.37;;
10281;SDS011;5186;59.472;18.048;2023-04-09T01:06:50;7.73;;;2.53;;
10281;SDS011;5186;59.472;18.048;2023-04-09T01:09:23;7.30;;;2.03;;
10281;SDS011;5186;59.472;18.048;2023-04-09T01:14:36;5.47;;;2.30;;
10281;SDS011;5186;59.472;18.048;2023-04-09T01:17:16;4.57;;;2.00;;
10281;SDS011;5186;59.472;18.048;2023-04-09T01:19:58;2.47;;;1.93;;
10281;SDS011;5186;59.472;18.048;2023-04-09T01:25:39;5.93;;;2.53;;
10281;SDS011;5186;59.472;18.048;2023-04-09T01:31:02;4.17;;;2.40;;
10281;SDS011;5186;59.472;18.048;2023-04-09T01:33:32;4.47;;;2.20;;
10281;SDS011;5186;59.472;18.048;2023-04-09T01:35:59;4.70;;;2.20;;
10281;SDS011;5186;59.472;18.048;2023-04-09T01:38:25;6.50;;;2.03;;
10281;SDS011;5186;59.472;18.048;2023-04-09T01:40:53;10.53;;;2.70;;
10281;SDS011;5186;59.472;18.048;2023-04-09T01:43:20;5.27;;;1.97;;
10281;SDS011;5186;59.472;18.048;2023-04-09T01:45:46;5.57;;;2.67;;
10281;SDS011;5186;59.472;18.048;2023-04-09T01:48:12;5.27;;;2.20;;
10281;SDS011;5186;59.472;18.048;2023-04-09T01:50:40;5.17;;;2.40;;
10281;SDS011;5186;59.472;18.048;2023-04-09T01:53:06;4.43;;;2.20;;
10281;SDS011;5186;59.472;18.048;2023-04-09T01:55:32;5.60;;;2.37;;
10281;SDS011;5186;59.472;18.048;2023-04-09T01:57:57;6.80;;;2.20;;
10281;SDS011;5186;59.472;18.048;2023-04-09T02:00:23;4.80;;;2.13;;
10281;SDS011;5186;59.472;18.048;2023-04-09T02:03:02;3.97;;;2.47;;
10281;SDS011;5186;59.472;18.048;2023-04-09T02:05:43;6.87;;;2.50;;
10281;SDS011;5186;59.472;18.048;2023-04-09T02:08:18;4.37;;;2.43;;
10281;SDS011;5186;59.472;18.048;2023-04-09T02:10:46;5.83;;;2.17;;
10281;SDS011;5186;59.472;18.048;2023-04-09T02:13:18;3.93;;;2.43;;
10281;SDS011;5186;59.472;18.048;2023-04-09T02:15:44;2.80;;;2.30;;
10281;SDS011;5186;59.472;18.048;2023-04-09T02:18:24;6.43;;;2.20;;
10281;SDS011;5186;59.472;18.048;2023-04-09T02:20:57;4.17;;;1.97;;
10281;SDS011;5186;59.472;18.048;2023-04-09T02:23:24;3.20;;;2.00;;
10281;SDS011;5186;59.472;18.048;2023-04-09T02:25:50;2.77;;;2.13;;
10281;SDS011;5186;59.472;18.048;2023-04-09T02:28:21;3.87;;;2.30;;
10281;SDS011;5186;59.472;18.048;2023-04-09T02:30:46;3.53;;;1.90;;
10281;SDS011;5186;59.472;18.048;2023-04-09T02:33:12;3.40;;;2.10;;
10281;SDS011;5186;59.472;18.048;2023-04-09T02:35:37;6.57;;;2.40;;
10281;SDS011;5186;59.472;18.048;2023-04-09T02:38:03;4.90;;;1.87;;
10281;SDS011;5186;59.472;18.048;2023-04-09T02:40:28;4.13;;;2.20;;
10281;SDS011;5186;59.472;18.048;2023-04-09T02:42:54;4.50;;;2.77;;
10281;SDS011;5186;59.472;18.048;2023-04-09T02:45:20;2.60;;;2.10;;
10281;SDS011;5186;59.472;18.048;2023-04-09T02:47:45;5.07;;;2.80;;
10281;SDS011;5186;59.472;18.048;2023-04-09T02:50:11;6.83;;;2.60;;
10281;SDS011;5186;59.472;18.048;2023-04-09T02:52:36;3.10;;;2.30;;
10281;SDS011;5186;59.472;18.048;2023-04-09T02:55:02;4.50;;;1.87;;
10281;SDS011;5186;59.472;18.048;2023-04-09T02:57:28;4.63;;;2.40;;
10281;SDS011;5186;59.472;18.048;2023-04-09T02:59:54;5.17;;;2.23;;
10281;SDS011;5186;59.472;18.048;2023-04-09T03:02:19;4.50;;;2.00;;
10281;SDS011;5186;59.472;18.048;2023-04-09T03:04:45;2.63;;;2.07;;
10281;SDS011;5186;59.472;18.048;2023-04-09T03:07:11;4.40;;;2.20;;
10281;SDS011;5186;59.472;18.048;2023-04-09T03:09:36;7.70;;;2.60;;
10281;SDS011;5186;59.472;18.048;2023-04-09T03:12:02;6.27;;;2.23;;
10281;SDS011;5186;59.472;18.048;2023-04-09T03:14:27;6.13;;;2.60;;
10281;SDS011;5186;59.472;18.048;2023-04-09T03:16:53;3.23;;;2.10;;
10281;SDS011;5186;59.472;18.048;2023-04-09T03:19:18;3.43;;;2.10;;
10281;SDS011;5186;59.472;18.048;2023-04-09T03:21:44;3.77;;;2.47;;
10281;SDS011;5186;59.472;18.048;2023-04-09T03:24:10;8.53;;;2.20;;
10281;SDS011;5186;59.472;18.048;2023-04-09T03:26:36;5.00;;;2.33;;
10281;SDS011;5186;59.472;18.048;2023-04-09T03:29:02;3.73;;;2.27;;
10281;SDS011;5186;59.472;18.048;2023-04-09T03:31:28;8.20;;;2.27;;
10281;SDS011;5186;59.472;18.048;2023-04-09T03:33:54;3.70;;;2.10;;
10281;SDS011;5186;59.472;18.048;2023-04-09T03:36:20;5.10;;;2.10;;
10281;SDS011;5186;59.472;18.048;2023-04-09T03:38:45;4.37;;;2.27;;
10281;SDS011;5186;59.472;18.048;2023-04-09T03:41:11;3.97;;;2.10;;
10281;SDS011;5186;59.472;18.048;2023-04-09T03:43:36;2.93;;;2.10;;
10281;SDS011;5186;59.472;18.048;2023-04-09T03:46:09;6.30;;;2.37;;
10281;SDS011;5186;59.472;18.048;2023-04-09T03:48:36;2.67;;;1.93;;
10281;SDS011;5186;59.472;18.048;2023-04-09T03:51:01;4.33;;;2.20;;
10281;SDS011;5186;59.472;18.048;2023-04-09T03:53:27;2.67;;;1.93;;
10281;SDS011;5186;59.472;18.048;2023-04-09T03:55:53;5.53;;;2.33;;
10281;SDS011;5186;59.472;18.048;2023-04-09T03:58:18;5.73;;;2.53;;
10281;SDS011;5186;59.472;18.048;2023-04-09T04:00:44;6.50;;;2.37;;
10281;SDS011;5186;59.472;18.048;2023-04-09T04:03:10;3.77;;;2.20;;
10281;SDS011;5186;59.472;18.048;2023-04-09T04:05:36;4.40;;;2.03;;
10281;SDS011;5186;59.472;18.048;2023-04-09T04:08:01;5.50;;;2.10;;
10281;SDS011;5186;59.472;18.048;2023-04-09T04:10:27;4.90;;;2.30;;
10281;SDS011;5186;59.472;18.048;2023-04-09T04:12:52;3.83;;;2.50;;
10281;SDS011;5186;59.472;18.048;2023-04-09T04:15:18;9.43;;;2.60;;
10281;SDS011;5186;59.472;18.048;2023-04-09T04:17:44;4.37;;;2.20;;
10281;SDS011;5186;59.472;18.048;2023-04-09T04:20:10;4.97;;;2.20;;
10281;SDS011;5186;59.472;18.048;2023-04-09T04:22:36;4.60;;;2.10;;
10281;SDS011;5186;59.472;18.048;2023-04-09T04:25:02;4.93;;;2.53;;
10281;SDS011;5186;59.472;18.048;2023-04-09T04:27:28;2.90;;;2.07;;
10281;SDS011;5186;59.472;18.048;2023-04-09T04:29:54;3.93;;;2.73;;
10281;SDS011;5186;59.472;18.048;2023-04-09T04:32:22;3.23;;;2.13;;
10281;SDS011;5186;59.472;18.048;2023-04-09T04:34:48;3.50;;;2.20;;
10281;SDS011;5186;59.472;18.048;2023-04-09T04:37:14;5.17;;;2.43;;
10281;SDS011;5186;59.472;18.048;2023-04-09T04:39:39;5.17;;;2.50;;
10281;SDS011;5186;59.472;18.048;2023-04-09T04:42:05;4.40;;;2.30;;
10281;SDS011;5186;59.472;18.048;2023-04-09T04:44:31;5.20;;;2.63;;
10281;SDS011;5186;59.472;18.048;2023-04-09T04:46:56;3.43;;;2.00;;
10281;SDS011;5186;59.472;18.048;2023-04-09T04:49:22;3.87;;;1.80;;
10281;SDS011;5186;59.472;18.048;2023-04-09T04:51:47;2.83;;;2.20;;
10281;SDS011;5186;59.472;18.048;2023-04-09T04:54:13;4.20;;;2.20;;
10281;SDS011;5186;59.472;18.048;2023-04-09T04:56:38;6.23;;;2.43;;
10281;SDS011;5186;59.472;18.048;2023-04-09T04:59:04;4.53;;;2.40;;
10281;SDS011;5186;59.472;18.048;2023-04-09T05:01:30;3.53;;;2.40;;
10281;SDS011;5186;59.472;18.048;2023-04-09T05:03:55;6.30;;;2.47;;
10281;SDS011;5186;59.472;18.048;2023-04-09T05:06:21;3.43;;;2.40;;
10281;SDS011;5186;59.472;18.048;2023-04-09T05:08:46;2.77;;;1.90;;
10281;SDS011;5186;59.472;18.048;2023-04-09T05:11:12;3.53;;;1.83;;
10281;SDS011;5186;59.472;18.048;2023-04-09T05:13:39;4.23;;;2.17;;
10281;SDS011;5186;59.472;18.048;2023-04-09T05:16:05;3.70;;;1.87;;
10281;SDS011;5186;59.472;18.048;2023-04-09T05:18:30;5.00;;;2.07;;
10281;SDS011;5186;59.472;18.048;2023-04-09T05:20:56;5.00;;;2.23;;
10281;SDS011;5186;59.472;18.048;2023-04-09T05:23:22;4.17;;;1.77;;
10281;SDS011;5186;59.472;18.048;2023-04-09T05:25:48;2.40;;;1.70;;
10281;SDS011;5186;59.472;18.048;2023-04-09T05:28:14;3.47;;;2.00;;
10281;SDS011;5186;59.472;18.048;2023-04-09T05:30:40;4.87;;;2.13;;
10281;SDS011;5186;59.472;18.048;2023-04-09T05:33:10;3.90;;;2.20;;
10281;SDS011;5186;59.472;18.048;2023-04-09T05:35:39;3.80;;;2.23;;
10281;SDS011;5186;59.472;18.048;2023-04-09T05:38:05;4.03;;;2.17;;
10281;SDS011;5186;59.472;18.048;2023-04-09T05:40:30;4.70;;;2.07;;
10281;SDS011;5186;59.472;18.048;2023-04-09T05:42:56;2.83;;;1.97;;
10281;SDS011;5186;59.472;18.048;2023-04-09T05:45:21;3.37;;;1.80;;
10281;SDS011;5186;59.472;18.048;2023-04-09T05:47:47;3.70;;;2.00;;
10281;SDS011;5186;59.472;18.048;2023-04-09T05:50:13;2.93;;;1.57;;
10281;SDS011;5186;59.472;18.048;2023-04-09T05:52:38;4.83;;;1.83;;
10281;SDS011;5186;59.472;18.048;2023-04-09T05:55:04;1.87;;;1.60;;
10281;SDS011;5186;59.472;18.048;2023-04-09T05:57:30;3.60;;;2.00;;
10281;SDS011;5186;59.472;18.048;2023-04-09T05:59:56;3.77;;;1.90;;
10281;SDS011;5186;59.472;18.048;2023-04-09T06:02:22;3.20;;;1.80;;
10281;SDS011;5186;59.472;18.048;2023-04-09T06:04:49;3.10;;;1.90;;
10281;SDS011;5186;59.472;18.048;2023-04-09T06:07:15;3.03;;;1.83;;
10281;SDS011;5186;59.472;18.048;2023-04-09T06:09:41;3.70;;;1.50;;
10281;SDS011;5186;59.472;18.048;2023-04-09T06:12:11;2.87;;;1.50;;
10281;SDS011;5186;59.472;18.048;2023-04-09T06:14:37;2.30;;;1.40;;
10281;SDS011;5186;59.472;18.048;2023-04-09T06:17:03;4.90;;;1.60;;
10281;SDS011;5186;59.472;18.048;2023-04-09T06:19:28;2.13;;;1.60;;
10281;SDS011;5186;59.472;18.048;2023-04-09T06:21:54;5.43;;;1.60;;
10281;SDS011;5186;59.472;18.048;2023-04-09T06:24:19;4.10;;;1.50;;
10281;SDS011;5186;59.472;18.048;2023-04-09T06:26:45;2.30;;;1.23;;
10281;SDS011;5186;59.472;18.048;2023-04-09T06:29:11;1.93;;;1.30;;
10281;SDS011;5186;59.472;18.048;2023-04-09T06:31:36;2.80;;;1.30;;
10281;SDS011;5186;59.472;18.048;2023-04-09T06:34:02;2.17;;;1.17;;
10281;SDS011;5186;59.472;18.048;2023-04-09T06:36:27;2.50;;;1.40;;
10281;SDS011;5186;59.472;18.048;2023-04-09T06:38:54;3.33;;;1.30;;
10281;SDS011;5186;59.472;18.048;2023-04-09T06:41:20;1.50;;;1.10;;
10281;SDS011;5186;59.472;18.048;2023-04-09T06:43:50;2.83;;;1.00;;
10281;SDS011;5186;59.472;18.048;2023-04-09T06:46:16;1.60;;;1.00;;
10281;SDS011;5186;59.472;18.048;2023-04-09T06:48:44;2.10;;;0.90;;
10281;SDS011;5186;59.472;18.048;2023-04-09T06:51:10;1.30;;;1.03;;
10281;SDS011;5186;59.472;18.048;2023-04-09T06:53:37;3.93;;;1.00;;
10281;SDS011;5186;59.472;18.048;2023-04-09T06:56:03;2.37;;;1.07;;
10281;SDS011;5186;59.472;18.048;2023-04-09T06:58:28;1.60;;;1.00;;
10281;SDS011;5186;59.472;18.048;2023-04-09T07:00:54;2.67;;;1.20;;
10281;SDS011;5186;59.472;18.048;2023-04-09T07:03:20;1.80;;;1.00;;
10281;SDS011;5186;59.472;18.048;2023-04-09T07:05:46;1.90;;;1.10;;
10281;SDS011;5186;59.472;18.048;2023-04-09T07:08:12;2.33;;;1.13;;
10281;SDS011;5186;59.472;18.048;2023-04-09T07:10:38;1.23;;;1.13;;
10281;SDS011;5186;59.472;18.048;2023-04-09T07:13:04;1.50;;;1.20;;
10281;SDS011;5186;59.472;18.048;2023-04-09T07:15:30;2.83;;;1.33;;
10281;SDS011;5186;59.472;18.048;2023-04-09T07:17:56;1.40;;;1.30;;
10281;SDS011;5186;59.472;18.048;2023-04-09T07:20:22;4.37;;;1.50;;
10281;SDS011;5186;59.472;18.048;2023-04-09T07:22:47;2.17;;;1.40;;
10281;SDS011;5186;59.472;18.048;2023-04-09T07:25:14;2.37;;;1.30;;
10281;SDS011;5186;59.472;18.048;2023-04-09T07:27:40;2.23;;;1.37;;
10281;SDS011;5186;59.472;18.048;2023-04-09T07:30:07;1.53;;;1.17;;
10281;SDS011;5186;59.472;18.048;2023-04-09T07:32:35;1.90;;;1.33;;
10281;SDS011;5186;59.472;18.048;2023-04-09T07:35:02;3.30;;;1.17;;
10281;SDS011;5186;59.472;18.048;2023-04-09T07:37:31;1.77;;;1.23;;
10281;SDS011;5186;59.472;18.048;2023-04-09T07:39:56;1.40;;;1.30;;
10281;SDS011;5186;59.472;18.048;2023-04-09T07:42:22;2.10;;;1.30;;
10281;SDS011;5186;59.472;18.048;2023-04-09T07:44:48;3.17;;;1.33;;
10281;SDS011;5186;59.472;18.048;2023-04-09T07:47:13;2.07;;;1.37;;
10281;SDS011;5186;59.472;18.048;2023-04-09T07:49:39;1.40;;;1.30;;
10281;SDS011;5186;59.472;18.048;2023-04-09T07:52:05;1.77;;;1.30;;
10281;SDS011;5186;59.472;18.048;2023-04-09T07:54:31;1.83;;;1.23;;
10281;SDS011;5186;59.472;18.048;2023-04-09T07:56:58;3.33;;;1.50;;
10281;SDS011;5186;59.472;18.048;2023-04-09T07:59:24;1.90;;;1.37;;
10281;SDS011;5186;59.472;18.048;2023-04-09T08:01:50;2.20;;;1.47;;
10281;SDS011;5186;59.472;18.048;2023-04-09T08:04:15;2.07;;;1.30;;
10281;SDS011;5186;59.472;18.048;2023-04-09T08:06:41;3.70;;;1.17;;
10281;SDS011;5186;59.472;18.048;2023-04-09T08:09:07;1.60;;;1.13;;
10281;SDS011;5186;59.472;18.048;2023-04-09T08:11:32;2.40;;;1.10;;
10281;SDS011;5186;59.472;18.048;2023-04-09T08:13:58;3.30;;;1.43;;
10281;SDS011;5186;59.472;18.048;2023-04-09T08:16:26;1.30;;;1.20;;
10281;SDS011;5186;59.472;18.048;2023-04-09T08:18:54;2.73;;;1.27;;
10281;SDS011;5186;59.472;18.048;2023-04-09T08:21:20;2.77;;;1.80;;
10281;SDS011;5186;59.472;18.048;2023-04-09T08:23:46;2.80;;;1.80;;
10281;SDS011;5186;59.472;18.048;2023-04-09T08:26:11;2.03;;;1.50;;
10281;SDS011;5186;59.472;18.048;2023-04-09T08:28:37;2.77;;;1.30;;
10281;SDS011;5186;59.472;18.048;2023-04-09T08:31:02;2.37;;;1.77;;
10281;SDS011;5186;59.472;18.048;2023-04-09T08:33:28;2.80;;;1.60;;
10281;SDS011;5186;59.472;18.048;2023-04-09T08:35:54;3.13;;;1.40;;
10281;SDS011;5186;59.472;18.048;2023-04-09T08:38:20;2.80;;;1.37;;
10281;SDS011;5186;59.472;18.048;2023-04-09T08:40:46;3.00;;;1.50;;
10281;SDS011;5186;59.472;18.048;2023-04-09T08:43:13;2.03;;;1.43;;
10281;SDS011;5186;59.472;18.048;2023-04-09T08:45:43;2.50;;;1.63;;
10281;SDS011;5186;59.472;18.048;2023-04-09T08:48:09;2.27;;;1.63;;
10281;SDS011;5186;59.472;18.048;2023-04-09T08:50:37;2.57;;;1.73;;
10281;SDS011;5186;59.472;18.048;2023-04-09T08:53:07;2.80;;;1.87;;
10281;SDS011;5186;59.472;18.048;2023-04-09T08:55:34;2.00;;;1.73;;
10281;SDS011;5186;59.472;18.048;2023-04-09T08:58:04;3.23;;;1.80;;
10281;SDS011;5186;59.472;18.048;2023-04-09T09:00:34;1.83;;;1.60;;
10281;SDS011;5186;59.472;18.048;2023-04-09T09:03:07;1.77;;;1.67;;
10281;SDS011;5186;59.472;18.048;2023-04-09T09:05:38;2.50;;;1.43;;
10281;SDS011;5186;59.472;18.048;2023-04-09T09:08:12;2.87;;;2.17;;
10281;SDS011;5186;59.472;18.048;2023-04-09T09:10:47;2.93;;;1.40;;
10281;SDS011;5186;59.472;18.048;2023-04-09T09:15:52;1.67;;;1.50;;
10281;SDS011;5186;59.472;18.048;2023-04-09T09:18:36;3.67;;;1.40;;
10281;SDS011;5186;59.472;18.048;2023-04-09T09:21:12;1.60;;;1.50;;
10281;SDS011;5186;59.472;18.048;2023-04-09T09:23:40;2.40;;;1.10;;
10281;SDS011;5186;59.472;18.048;2023-04-09T09:26:16;2.00;;;1.37;;
10281;SDS011;5186;59.472;18.048;2023-04-09T09:28:43;2.17;;;1.33;;
10281;SDS011;5186;59.472;18.048;2023-04-09T09:31:11;2.03;;;1.17;;
10281;SDS011;5186;59.472;18.048;2023-04-09T09:33:37;2.00;;;1.03;;
10281;SDS011;5186;59.472;18.048;2023-04-09T09:36:03;2.47;;;1.10;;
10281;SDS011;5186;59.472;18.048;2023-04-09T09:38:29;2.10;;;0.97;;
10281;SDS011;5186;59.472;18.048;2023-04-09T09:40:56;2.80;;;1.00;;
10281;SDS011;5186;59.472;18.048;2023-04-09T09:43:22;1.20;;;0.80;;
10281;SDS011;5186;59.472;18.048;2023-04-09T09:45:48;2.33;;;1.10;;
10281;SDS011;5186;59.472;18.048;2023-04-09T09:48:14;1.90;;;1.10;;
10281;SDS011;5186;59.472;18.048;2023-04-09T09:50:40;3.83;;;1.20;;
10281;SDS011;5186;59.472;18.048;2023-04-09T09:53:07;2.43;;;1.00;;
10281;SDS011;5186;59.472;18.048;2023-04-09T09:55:38;3.60;;;1.13;;
10281;SDS011;5186;59.472;18.048;2023-04-09T09:58:07;1.27;;;0.63;;
10281;SDS011;5186;59.472;18.048;2023-04-09T10:00:51;1.57;;;0.77;;
10281;SDS011;5186;59.472;18.048;2023-04-09T10:03:21;0.70;;;0.47;;
10281;SDS011;5186;59.472;18.048;2023-04-09T10:05:49;1.97;;;0.70;;
10281;SDS011;5186;59.472;18.048;2023-04-09T10:08:15;1.57;;;0.70;;
10281;SDS011;5186;59.472;18.048;2023-04-09T10:10:42;1.30;;;0.40;;
10281;SDS011;5186;59.472;18.048;2023-04-09T10:13:09;0.97;;;0.57;;
10281;SDS011;5186;59.472;18.048;2023-04-09T10:15:53;1.13;;;0.50;;
10281;SDS011;5186;59.472;18.048;2023-04-09T10:18:20;1.93;;;0.67;;
10281;SDS011;5186;59.472;18.048;2023-04-09T10:21:00;2.07;;;0.60;;
10281;SDS011;5186;59.472;18.048;2023-04-09T10:26:00;1.73;;;0.60;;
10281;SDS011;5186;59.472;18.048;2023-04-09T10:28:25;0.70;;;0.70;;
10281;SDS011;5186;59.472;18.048;2023-04-09T10:30:51;1.07;;;0.70;;
10281;SDS011;5186;59.472;18.048;2023-04-09T10:33:21;2.90;;;0.70;;
10281;SDS011;5186;59.472;18.048;2023-04-09T10:35:53;2.10;;;0.97;;
10281;SDS011;5186;59.472;18.048;2023-04-09T10:38:36;1.13;;;0.80;;
10281;SDS011;5186;59.472;18.048;2023-04-09T10:41:06;1.57;;;1.00;;
10281;SDS011;5186;59.472;18.048;2023-04-09T10:43:35;1.00;;;0.57;;
10281;SDS011;5186;59.472;18.048;2023-04-09T10:46:03;2.53;;;0.70;;
10281;SDS011;5186;59.472;18.048;2023-04-09T10:48:48;0.80;;;0.60;;
10281;SDS011;5186;59.472;18.048;2023-04-09T10:51:33;2.40;;;0.80;;
10281;SDS011;5186;59.472;18.048;2023-04-09T10:54:00;2.33;;;0.73;;
10281;SDS011;5186;59.472;18.048;2023-04-09T10:56:25;1.10;;;0.70;;
10281;SDS011;5186;59.472;18.048;2023-04-09T10:58:51;1.40;;;0.70;;
10281;SDS011;5186;59.472;18.048;2023-04-09T11:01:20;1.07;;;0.63;;
10281;SDS011;5186;59.472;18.048;2023-04-09T11:03:46;0.70;;;0.60;;
10281;SDS011;5186;59.472;18.048;2023-04-09T11:06:37;1.13;;;0.70;;
10281;SDS011;5186;59.472;18.048;2023-04-09T11:09:04;0.87;;;0.70;;
10281;SDS011;5186;59.472;18.048;2023-04-09T11:11:29;1.63;;;0.60;;
10281;SDS011;5186;59.472;18.048;2023-04-09T11:13:58;2.10;;;0.50;;
10281;SDS011;5186;59.472;18.048;2023-04-09T11:16:25;1.37;;;0.63;;
10281;SDS011;5186;59.472;18.048;2023-04-09T11:18:53;1.33;;;0.60;;
10281;SDS011;5186;59.472;18.048;2023-04-09T11:21:20;1.60;;;0.70;;
10281;SDS011;5186;59.472;18.048;2023-04-09T11:23:51;1.77;;;0.70;;
10281;SDS011;5186;59.472;18.048;2023-04-09T11:26:21;0.80;;;0.53;;
10281;SDS011;5186;59.472;18.048;2023-04-09T11:28:48;1.80;;;0.60;;
10281;SDS011;5186;59.472;18.048;2023-04-09T11:31:14;2.30;;;0.67;;
10281;SDS011;5186;59.472;18.048;2023-04-09T11:33:40;0.77;;;0.47;;
10281;SDS011;5186;59.472;18.048;2023-04-09T11:36:09;0.77;;;0.60;;
10281;SDS011;5186;59.472;18.048;2023-04-09T11:38:35;0.73;;;0.53;;
10281;SDS011;5186;59.472;18.048;2023-04-09T11:41:02;0.90;;;0.70;;
10281;SDS011;5186;59.472;18.048;2023-04-09T11:43:27;1.77;;;0.63;;
10281;SDS011;5186;59.472;18.048;2023-04-09T11:45:53;2.07;;;0.60;;
10281;SDS011;5186;59.472;18.048;2023-04-09T11:48:19;1.37;;;0.83;;
10281;SDS011;5186;59.472;18.048;2023-04-09T11:50:47;1.17;;;0.70;;
10281;SDS011;5186;59.472;18.048;2023-04-09T11:53:17;2.30;;;0.90;;
10281;SDS011;5186;59.472;18.048;2023-04-09T11:55:50;0.83;;;0.70;;
10281;SDS011;5186;59.472;18.048;2023-04-09T11:58:17;2.90;;;1.00;;
10281;SDS011;5186;59.472;18.048;2023-04-09T12:00:43;0.73;;;0.50;;
10281;SDS011;5186;59.472;18.048;2023-04-09T12:03:09;1.47;;;0.50;;
10281;SDS011;5186;59.472;18.048;2023-04-09T12:05:35;1.07;;;0.70;;
10281;SDS011;5186;59.472;18.048;2023-04-09T12:08:01;2.00;;;0.60;;
10281;SDS011;5186;59.472;18.048;2023-04-09T12:10:32;1.43;;;0.50;;
10281;SDS011;5186;59.472;18.048;2023-04-09T12:13:05;1.90;;;0.60;;
10281;SDS011;5186;59.472;18.048;2023-04-09T12:15:34;1.23;;;0.60;;
10281;SDS011;5186;59.472;18.048;2023-04-09T12:18:01;1.43;;;0.60;;
10281;SDS011;5186;59.472;18.048;2023-04-09T12:20:37;2.00;;;0.60;;
10281;SDS011;5186;59.472;18.048;2023-04-09T12:23:10;1.47;;;0.60;;
10281;SDS011;5186;59.472;18.048;2023-04-09T12:25:42;2.03;;;0.50;;
10281;SDS011;5186;59.472;18.048;2023-04-09T12:28:13;2.37;;;0.70;;
10281;SDS011;5186;59.472;18.048;2023-04-09T12:30:41;1.40;;;0.53;;
10281;SDS011;5186;59.472;18.048;2023-04-09T12:33:07;0.70;;;0.50;;
10281;SDS011;5186;59.472;18.048;2023-04-09T12:35:33;0.80;;;0.60;;
10281;SDS011;5186;59.472;18.048;2023-04-09T12:37:59;1.10;;;0.50;;
10281;SDS011;5186;59.472;18.048;2023-04-09T12:40:25;2.30;;;0.90;;
10281;SDS011;5186;59.472;18.048;2023-04-09T12:42:51;3.67;;;0.80;;
10281;SDS011;5186;59.472;18.048;2023-04-09T12:45:18;1.03;;;0.70;;
10281;SDS011;5186;59.472;18.048;2023-04-09T12:47:45;1.90;;;0.87;;
10281;SDS011;5186;59.472;18.048;2023-04-09T12:50:11;1.00;;;0.70;;
10281;SDS011;5186;59.472;18.048;2023-04-09T12:52:38;4.03;;;0.80;;
10281;SDS011;5186;59.472;18.048;2023-04-09T12:55:04;2.07;;;0.80;;
10281;SDS011;5186;59.472;18.048;2023-04-09T12:57:30;1.23;;;0.67;;
10281;SDS011;5186;59.472;18.048;2023-04-09T12:59:56;0.60;;;0.60;;
10281;SDS011;5186;59.472;18.048;2023-04-09T13:02:22;2.03;;;0.60;;
10281;SDS011;5186;59.472;18.048;2023-04-09T13:04:48;0.73;;;0.70;;
10281;SDS011;5186;59.472;18.048;2023-04-09T13:07:15;1.63;;;0.70;;
10281;SDS011;5186;59.472;18.048;2023-04-09T13:09:42;3.67;;;0.87;;
10281;SDS011;5186;59.472;18.048;2023-04-09T13:12:09;0.80;;;0.57;;
10281;SDS011;5186;59.472;18.048;2023-04-09T13:14:35;1.90;;;0.90;;
10281;SDS011;5186;59.472;18.048;2023-04-09T13:17:03;1.33;;;0.60;;
10281;SDS011;5186;59.472;18.048;2023-04-09T13:19:28;2.23;;;0.70;;
10281;SDS011;5186;59.472;18.048;2023-04-09T13:21:54;1.60;;;0.70;;
10281;SDS011;5186;59.472;18.048;2023-04-09T13:24:20;1.63;;;0.63;;
10281;SDS011;5186;59.472;18.048;2023-04-09T13:26:45;1.53;;;0.90;;
10281;SDS011;5186;59.472;18.048;2023-04-09T13:29:11;0.70;;;0.60;;
10281;SDS011;5186;59.472;18.048;2023-04-09T13:31:36;2.93;;;0.80;;
10281;SDS011;5186;59.472;18.048;2023-04-09T13:34:02;2.17;;;0.80;;
10281;SDS011;5186;59.472;18.048;2023-04-09T13:36:28;0.70;;;0.67;;
10281;SDS011;5186;59.472;18.048;2023-04-09T13:38:54;2.23;;;0.70;;
10281;SDS011;5186;59.472;18.048;2023-04-09T13:41:20;1.77;;;0.60;;
10281;SDS011;5186;59.472;18.048;2023-04-09T13:43:51;1.57;;;0.70;;
10281;SDS011;5186;59.472;18.048;2023-04-09T13:46:17;0.97;;;0.63;;
10281;SDS011;5186;59.472;18.048;2023-04-09T13:48:43;1.03;;;0.63;;
10281;SDS011;5186;59.472;18.048;2023-04-09T13:51:08;2.53;;;0.90;;
10281;SDS011;5186;59.472;18.048;2023-04-09T13:53:34;1.53;;;0.80;;
10281;SDS011;5186;59.472;18.048;2023-04-09T13:56:00;1.47;;;0.67;;
10281;SDS011;5186;59.472;18.048;2023-04-09T13:58:25;1.07;;;0.80;;
10281;SDS011;5186;59.472;18.048;2023-04-09T14:00:51;1.13;;;0.70;;
10281;SDS011;5186;59.472;18.048;2023-04-09T14:03:16;0.80;;;0.60;;
10281;SDS011;5186;59.472;18.048;2023-04-09T14:05:42;0.60;;;0.53;;
10281;SDS011;5186;59.472;18.048;2023-04-09T14:08:08;2.90;;;0.50;;
10281;SDS011;5186;59.472;18.048;2023-04-09T14:10:34;1.07;;;0.50;;
10281;SDS011;5186;59.472;18.048;2023-04-09T14:13:00;0.83;;;0.53;;
10281;SDS011;5186;59.472;18.048;2023-04-09T14:15:30;1.60;;;0.70;;
10281;SDS011;5186;59.472;18.048;2023-04-09T14:17:56;0.63;;;0.50;;
10281;SDS011;5186;59.472;18.048;2023-04-09T14:20:21;0.70;;;0.63;;
10281;SDS011;5186;59.472;18.048;2023-04-09T14:22:48;1.17;;;0.80;;
10281;SDS011;5186;59.472;18.048;2023-04-09T14:25:14;0.83;;;0.60;;
10281;SDS011;5186;59.472;18.048;2023-04-09T14:27:40;0.93;;;0.67;;
10281;SDS011;5186;59.472;18.048;2023-04-09T14:30:07;1.00;;;0.60;;
10281;SDS011;5186;59.472;18.048;2023-04-09T14:32:33;1.63;;;0.57;;
10281;SDS011;5186;59.472;18.048;2023-04-09T14:34:59;2.73;;;0.73;;
10281;SDS011;5186;59.472;18.048;2023-04-09T14:37:26;1.50;;;0.40;;
10281;SDS011;5186;59.472;18.048;2023-04-09T14:39:51;1.40;;;0.70;;
10281;SDS011;5186;59.472;18.048;2023-04-09T14:42:17;1.67;;;0.60;;
10281;SDS011;5186;59.472;18.048;2023-04-09T14:44:43;1.53;;;0.60;;
10281;SDS011;5186;59.472;18.048;2023-04-09T14:47:09;2.73;;;0.70;;
10281;SDS011;5186;59.472;18.048;2023-04-09T14:49:35;0.70;;;0.60;;
10281;SDS011;5186;59.472;18.048;2023-04-09T14:52:00;1.50;;;0.57;;
10281;SDS011;5186;59.472;18.048;2023-04-09T14:54:26;2.63;;;0.70;;
10281;SDS011;5186;59.472;18.048;2023-04-09T14:56:54;3.57;;;0.70;;
10281;SDS011;5186;59.472;18.048;2023-04-09T14:59:21;1.77;;;0.60;;
10281;SDS011;5186;59.472;18.048;2023-04-09T15:01:47;1.57;;;0.80;;